Latest Weather Observations for Douglas River

IDD60801

Issued at 5:31 pm CST Tuesday 28 February 2017 (issued every 30 minutes, with the page automatically refreshed every 10 minutes)

About weather observations | Map of weather stations | Latest weather observations for NT | Other Formats
Station Details ID: 014901 Name: DOUGLAS RIVER Lat: -13.83 Lon: 131.19 Height: 42.8 m
Data from the previous 72 hours. | See also: Recent months at Douglas River
Date/Time
CST
Temp
°C
App
Temp
°C
Dew
Point
°C
Rel
Hum
%
Delta-T
°C
Wind Press
QNH
hPa
Press
MSL
hPa
Rain since
9am
mm
Dir  Spd
km/h
Gust
km/h
Spd
kts
Gust
kts
28/05:30pm 34.8 37.1 19.8 41 10.0 ENE 7 9 4 5 1005.7 1005.4 0.0
28/05:00pm 34.9 35.5 18.6 38 10.7 E 13 19 7 10 1005.7 1005.4 0.0
28/04:30pm 35.1 34.5 18.5 37 10.9 E 19 24 10 13 1005.8 1005.5 0.0
28/04:00pm 35.1 35.0 17.9 36 11.2 E 15 24 8 13 1006.0 1005.7 0.0
28/03:30pm 35.4 35.7 19.5 39 10.6 SE 17 22 9 12 1006.0 1005.7 0.0
28/03:00pm 35.3 35.7 19.9 40 10.3 ESE 17 24 9 13 1006.2 1005.9 0.0
28/02:30pm 35.2 35.0 19.8 40 10.3 ESE 20 30 11 16 1006.5 1006.2 0.0
28/02:00pm 34.8 35.0 20.2 42 9.8 SE 19 28 10 15 1006.7 1006.4 0.0
28/01:30pm 34.4 34.0 18.9 40 10.2 E 19 28 10 15 1007.1 1006.8 0.0
28/01:00pm 34.7 34.5 19.3 40 10.2 E 19 30 10 16 1007.3 1007.0 0.0
28/12:30pm 33.9 34.4 19.2 42 9.7 E 15 22 8 12 1007.8 1007.5 0.0
28/12:00pm 33.8 35.5 20.9 46 8.7 E 13 24 7 13 1008.2 1007.9 0.0
28/11:30am 32.9 35.4 21.7 51 7.6 ENE 11 17 6 9 1008.6 1008.3 0.0
28/11:00am 32.4 35.4 22.7 56 6.7 ENE 11 17 6 9 1008.9 1008.6 0.0
28/10:30am 31.5 35.2 23.3 61 5.7 E 9 19 5 10 1009.1 1008.8 0.0
28/10:00am 30.8 34.6 23.4 64 5.1 E 9 15 5 8 1009.3 1009.0 0.0
28/09:30am 29.7 34.5 24.1 72 3.9 NE 6 11 3 6 1009.5 1009.2 0.0
28/09:00am 28.4 34.5 24.5 79 2.7 CALM 0 6 0 3 1009.6 1009.3 0.0
28/08:30am 26.9 32.7 24.5 87 1.7 E 2 7 1 4 1009.5 1009.2 0.0
28/08:00am 25.8 30.9 24.1 90 1.2 ESE 4 7 2 4 1009.5 1009.2 0.0
28/07:30am 24.6 29.3 23.9 96 0.5 ESE 6 7 3 4 1009.3 1009.0 0.0
28/07:00am 23.8 27.8 23.1 96 0.5 ESE 7 9 4 5 1009.2 1008.9 0.0
28/06:30am 23.5 28.8 23.1 98 0.3 CALM 0 0 0 0 1009.1 1008.8 0.0
28/06:00am 23.9 29.5 23.5 98 0.3 CALM 0 0 0 0 1008.9 1008.6 0.0
28/05:30am 24.3 28.7 23.4 95 0.6 ENE 6 9 3 5 1008.7 1008.4 0.0
28/05:00am 24.4 28.9 23.7 96 0.5 E 6 7 3 4 1008.2 1007.9 0.0
28/04:30am 24.4 29.7 23.7 96 0.5 E 2 9 1 5 1008.1 1007.8 0.0
28/04:00am 24.2 29.8 23.5 96 0.5 CALM 0 0 0 0 1008.1 1007.8 0.0
28/03:30am 24.2 29.6 23.3 95 0.6 CALM 0 0 0 0 1007.9 1007.6 0.0
28/03:00am 25.1 30.9 23.9 93 0.8 CALM 0 0 0 0 1008.2 1007.9 0.0
28/02:30am 25.2 31.0 24.0 93 0.8 CALM 0 0 0 0 1008.3 1008.0 0.0
28/02:00am 26.1 30.5 23.8 87 1.6 N 7 9 4 5 1008.5 1008.2 0.0
28/01:30am 26.3 30.7 23.5 84 1.9 NNE 6 7 3 4 1008.7 1008.4 0.0
28/01:00am 26.3 30.7 23.4 84 2.0 NE 6 11 3 6 1008.8 1008.5 0.0
28/12:30am 26.7 31.6 24.7 89 1.4 E 7 11 4 6 1009.1 1008.8 0.0
28/12:00am 27.0 32.8 24.0 83 2.1 CALM 0 0 0 0 1008.9 1008.6 0.0
 
Date/Time
CST
Temp
°C
App
Temp
°C
Dew
Point
°C
Rel
Hum
%
Delta-T
°C
Wind Press
QNH
hPa
Press
MSL
hPa
Rain since
9am
mm
Dir  Spd
km/h
Gust
km/h
Spd
kts
Gust
kts
27/11:30pm 26.5 32.5 24.2 87 1.6 CALM 0 0 0 0 1009.3 1009.0 0.0
27/11:00pm 26.2 32.2 24.2 89 1.4 CALM 0 0 0 0 1009.2 1008.9 0.0
27/10:30pm 26.3 32.2 24.1 88 1.5 CALM 0 0 0 0 1008.9 1008.6 0.0
27/10:00pm 26.6 32.4 24.0 86 1.8 CALM 0 0 0 0 1008.5 1008.2 0.0
27/09:30pm 26.9 32.7 23.9 83 2.1 CALM 0 0 0 0 1008.3 1008.0 0.0
27/09:00pm 27.3 33.0 23.7 81 2.5 CALM 0 0 0 0 1007.9 1007.6 0.0
27/08:30pm 28.3 32.5 23.2 74 3.5 SE 6 7 3 4 1007.7 1007.4 0.0
27/08:00pm 28.3 32.9 23.8 76 3.1 SSE 6 7 3 4 1007.1 1006.8 0.0
27/07:30pm 29.2 33.1 22.9 69 4.3 SE 7 9 4 5 1006.8 1006.5 0.0
27/07:00pm 30.5 34.3 22.8 63 5.3 SE 7 11 4 6 1006.7 1006.4 0.0
27/06:30pm 32.7 35.2 21.7 52 7.5 ESE 11 13 6 7 1006.4 1006.1 0.0
27/06:00pm 33.7 34.7 20.2 45 9.0 ESE 15 20 8 11 1006.0 1005.7 0.0
27/05:30pm 34.3 34.6 19.7 42 9.7 ESE 17 20 9 11 1005.8 1005.5 0.0
27/05:00pm 34.5 33.7 19.2 40 10.1 SE 22 28 12 15 1005.7 1005.4 0.0
27/04:30pm 34.5 34.3 19.8 42 9.8 SE 20 26 11 14 1005.7 1005.4 0.0
27/04:00pm 34.8 34.9 20.4 43 9.7 ESE 20 30 11 16 1005.9 1005.6 0.0
27/03:30pm 35.3 37.0 22.4 47 8.9 ESE 17 22 9 12 1006.4 1006.1 0.0
27/03:00pm 34.7 36.6 22.0 47 8.7 ESE 15 24 8 13 1006.5 1006.2 0.0
27/02:30pm 34.4 36.1 21.7 47 8.7 SE 15 26 8 14 1006.9 1006.6 0.0
27/02:00pm 34.8 37.1 22.7 49 8.4 ESE 15 24 8 13 1007.2 1006.9 0.0
27/01:30pm 34.5 35.7 21.4 46 8.9 SE 17 26 9 14 1007.5 1007.2 0.0
27/01:00pm 33.6 37.1 22.9 53 7.4 ENE 9 22 5 12 1008.0 1007.7 0.0
27/12:30pm 32.5 36.7 24.1 61 5.9 NE 9 13 5 7 1008.5 1008.2 0.0
27/12:00pm 32.0 36.0 23.8 62 5.7 ESE 9 20 5 11 1008.9 1008.6 0.0
27/11:30am 32.3 36.2 24.2 62 5.7 ESE 11 20 6 11 1009.1 1008.8 0.0
27/11:00am 31.4 36.3 24.4 66 4.9 ESE 6 11 3 6 1009.4 1009.1 0.0
27/10:30am 30.7 35.8 25.0 71 4.0 E 7 11 4 6 1009.6 1009.3 0.0
27/10:00am 30.0 34.9 24.4 72 3.9 WSW 6 11 3 6 1009.9 1009.6 0.0
27/09:30am 28.9 34.7 24.5 77 3.1 NNW 2 7 1 4 1010.0 1009.7 0.0
27/09:00am 27.8 33.3 24.0 80 2.6 WSW 2 7 1 4 1010.0 1009.7 0.0
27/08:30am 27.1 32.1 23.8 82 2.3 SSE 4 9 2 5 1009.8 1009.5 0.0
27/08:00am 26.3 32.0 23.8 86 1.7 CALM 0 6 0 3 1009.7 1009.4 0.0
27/07:30am 25.0 30.1 24.0 94 0.7 ENE 4 6 2 3 1009.4 1009.1 0.0
27/07:00am 23.9 29.3 23.3 96 0.4 CALM 0 0 0 0 1009.0 1008.7 0.0
27/06:30am 23.9 29.1 23.5 98 0.3 SW 2 6 1 3 1008.8 1008.5 0.0
27/06:00am 23.7 29.2 23.4 98 0.2 CALM 0 0 0 0 1008.5 1008.2 0.0
27/05:30am 23.9 29.5 23.5 98 0.3 CALM 0 0 0 0 1008.4 1008.1 0.0
27/05:00am 24.3 30.0 23.7 96 0.4 CALM 0 0 0 0 1008.4 1008.1 0.0
27/04:30am 24.3 30.0 23.7 96 0.4 CALM 0 0 0 0 1008.4 1008.1 0.0
27/04:00am 24.4 30.1 23.7 96 0.5 CALM 0 4 0 2 1008.6 1008.3 0.0
27/03:30am 24.3 28.3 23.7 96 0.4 SSE 9 11 5 6 1008.9 1008.6 0.0
27/03:00am 25.0 29.9 23.7 92 0.9 NE 4 7 2 4 1008.6 1008.3 0.0
27/02:30am 25.4 30.6 23.5 89 1.3 NNE 2 7 1 4 1008.9 1008.6 0.0
27/02:00am 25.7 29.9 23.4 87 1.6 N 7 9 4 5 1009.0 1008.7 0.0
27/01:30am 25.9 30.3 23.4 86 1.7 N 6 9 3 5 1009.3 1009.0 0.0
27/01:00am 26.3 30.5 23.5 84 1.9 N 7 11 4 6 1009.6 1009.3 0.0
27/12:30am 26.5 31.3 24.2 87 1.6 NNE 6 9 3 5 1009.7 1009.4 0.0
27/12:00am 26.8 31.3 24.0 84 1.9 N 7 13 4 7 1009.7 1009.4 0.0
 
Date/Time
CST
Temp
°C
App
Temp
°C
Dew
Point
°C
Rel
Hum
%
Delta-T
°C
Wind Press
QNH
hPa
Press
MSL
hPa
Rain since
9am
mm
Dir  Spd
km/h
Gust
km/h
Spd
kts
Gust
kts
26/11:30pm 26.9 32.0 24.7 88 1.5 N 6 7 3 4 1009.4 1009.1 0.0
26/11:00pm 27.1 33.2 25.0 88 1.5 NNW 2 7 1 4 1009.4 1009.1 0.0
26/10:30pm 26.9 33.7 25.6 93 0.9 CALM 0 0 0 0 1009.2 1008.9 0.0
26/10:00pm 26.7 32.3 24.8 89 1.3 WNW 4 6 2 3 1008.7 1008.4 0.0
26/09:30pm 26.9 32.5 24.9 89 1.4 NW 4 7 2 4 1008.5 1008.2 0.0
26/09:00pm 27.1 33.6 25.1 89 1.4 CALM 0 0 0 0 1008.2 1007.9 0.0
26/08:30pm 27.0 32.3 25.0 89 1.4 SW 6 7 3 4 1007.8 1007.5 0.0
26/08:00pm 27.9 32.7 24.5 82 2.4 NNW 7 11 4 6 1007.0 1006.7 0.0
26/07:30pm 28.8 34.2 23.3 72 3.8 CALM 0 0 0 0 1005.9 1005.6 0.0
26/07:00pm 29.4 35.5 24.5 75 3.4 CALM 0 0 0 0 1005.7 1005.4 0.0
26/06:30pm 30.7 35.4 22.7 62 5.5 NNE 2 7 1 4 1005.6 1005.3 0.0
26/06:00pm 30.9 35.0 22.3 60 5.9 ENE 4 11 2 6 1005.1 1004.8 0.0
26/05:30pm 34.7 36.8 22.4 48 8.5 E 15 20 8 11 1005.0 1004.7 0.0
26/05:00pm 34.3 35.7 22.6 50 8.1 ESE 19 24 10 13 1005.2 1004.9 0.0
26/04:30pm 34.9 36.9 23.0 50 8.3 SE 17 22 9 12 1005.1 1004.8 0.0
26/04:00pm 34.7 36.2 22.7 49 8.3 SSE 19 28 10 15 1005.4 1005.1 0.0
26/03:30pm 34.9 37.8 23.1 50 8.2 SE 13 20 7 11 1005.6 1005.3 0.0
26/03:00pm 34.8 38.1 23.2 51 8.1 SSE 11 19 6 10 1006.0 1005.7 0.0
26/02:30pm 34.5 37.2 22.1 48 8.5 SE 11 19 6 10 1006.0 1005.7 0.0
26/02:00pm 34.0 37.9 23.0 52 7.6 ESE 7 15 4 8 1006.3 1006.0 0.0
26/01:30pm 33.7 37.3 23.8 56 6.9 ESE 11 15 6 8 1006.7 1006.4 0.0
26/01:00pm 33.3 37.1 23.5 56 6.8 ESE 9 13 5 7 1007.0 1006.7 0.0
26/12:30pm 32.7 37.0 23.7 59 6.3 SW 7 15 4 8 1007.4 1007.1 0.0
26/12:00pm 32.0 36.5 24.0 62 5.6 SSE 7 13 4 7 1008.0 1007.7 0.0
26/11:30am 31.0 35.7 24.3 67 4.7 SW 7 15 4 8 1008.1 1007.8 0.0
26/11:00am 30.4 34.6 24.1 69 4.4 SSE 9 13 5 7 1008.6 1008.3 0.0
26/10:30am 29.6 34.3 24.3 73 3.7 ESE 7 13 4 7 1009.0 1008.7 0.0
26/10:00am 29.1 33.2 24.5 76 3.2 SE 11 17 6 9 1009.4 1009.1 0.0
26/09:30am 27.4 31.6 24.1 82 2.3 SSE 9 15 5 8 1009.9 1009.6 0.0
26/09:00am 26.8 30.9 24.5 87 1.6 SSE 11 17 6 9 1009.8 1009.5 7.6
26/08:30am 24.9 30.0 24.0 95 0.6 SSW 4 9 2 5 1009.8 1009.5 7.6
26/08:00am 24.5 29.5 23.8 96 0.5 S 4 7 2 4 1009.1 1008.8 7.6
26/07:30am 23.9 28.8 23.6 98 0.2 NW 4 7 2 4 1008.8 1008.5 7.6
26/07:00am 23.8 28.9 23.4 98 0.3 N 2 6 1 3 1008.7 1008.4 7.6
26/06:30am 23.7 28.8 23.3 98 0.3 ESE 2 6 1 3 1008.2 1007.9 7.6
26/06:00am 23.7 28.1 23.4 98 0.2 SSE 6 7 3 4 1008.9 1008.6 7.6
26/05:30am 23.6 27.7 23.3 98 0.2 SE 7 11 4 6 1008.9 1008.6 7.6
26/05:00am 23.6 29.0 23.2 98 0.3 CALM 0 0 0 0 1009.0 1008.7 7.6
26/04:30am 23.4 27.0 23.0 98 0.3 SSW 9 13 5 7 1009.2 1008.9 7.4
26/04:00am 23.5 28.8 23.1 98 0.3 CALM 0 0 0 0 1009.0 1008.7 7.2
26/03:30am 23.4 27.6 23.1 98 0.2 ENE 6 7 3 4 1009.1 1008.8 6.6
26/03:00am 23.3 27.4 22.9 98 0.3 W 6 9 3 5 1009.2 1008.9 6.2
26/02:30am 23.2 26.9 22.6 96 0.4 SSE 7 11 4 6 1009.3 1009.0 5.6
26/02:00am 22.9 26.6 22.2 96 0.5 WSW 6 9 3 5 1010.1 1009.8 5.4
26/01:30am 22.9 26.6 22.3 96 0.4 NE 6 7 3 4 1010.4 1010.1 5.2
26/01:00am 23.7 25.6 22.7 94 0.7 NE 17 33 9 18 1011.0 1010.7 0.0
26/12:30am 26.4 28.2 23.3 83 2.1 ENE 19 30 10 16 1010.9 1010.6 0.0
26/12:00am 26.7 32.5 24.5 88 1.5 NE 2 9 1 5 1010.1 1009.8 0.0
 
Date/Time
CST
Temp
°C
App
Temp
°C
Dew
Point
°C
Rel
Hum
%
Delta-T
°C
Wind Press
QNH
hPa
Press
MSL
hPa
Rain since
9am
mm
Dir  Spd
km/h
Gust
km/h
Spd
kts
Gust
kts
25/11:30pm 27.1 31.9 24.2 84 2.0 NW 6 7 3 4 1009.9 1009.6 0.0
25/11:00pm 27.5 32.2 24.0 81 2.4 NW 6 9 3 5 1010.2 1009.9 0.0
25/10:30pm 27.6 32.5 24.3 82 2.3 NW 6 7 3 4 1009.9 1009.6 0.0
25/10:00pm 27.9 34.0 24.5 82 2.4 CALM 0 0 0 0 1009.9 1009.6 0.0
25/09:30pm 27.6 34.0 24.9 85 1.9 CALM 0 6 0 3 1009.4 1009.1 0.0
25/09:00pm 28.6 33.6 23.8 75 3.3 NE 4 7 2 4 1009.2 1008.9 0.0
25/08:30pm 28.9 34.5 24.2 76 3.3 N 2 9 1 5 1008.9 1008.6 0.0
25/08:00pm 29.0 34.6 24.3 76 3.3 NNW 2 7 1 4 1008.5 1008.2 0.0
25/07:30pm 30.0 34.5 24.0 70 4.2 NNW 7 13 4 7 1008.4 1008.1 0.0
25/07:00pm 32.1 36.6 23.6 60 5.9 WNW 6 7 3 4 1007.6 1007.3 0.0
25/06:30pm 33.4 37.1 22.5 52 7.5 W 7 9 4 5 1007.0 1006.7 0.0
25/06:00pm 34.3 38.1 22.7 50 8.0 WSW 7 9 4 5 1006.8 1006.5 0.0

Other Formats:

Comma delimited format used in spreadsheet applications
http://www.bom.gov.au/fwo/IDD60801/IDD60801.94128.axf

JavaScript Object Notation format (JSON) in row-major order
http://www.bom.gov.au/fwo/IDD60801/IDD60801.94128.json